Time;durP1;ratioP1;P1;durP2;ratioP2;P2;SDS_P1;SDS_P2;PMS_P1;PMS_P2;Temp;Humidity;BMP_temperature;BMP_pressure;BME280_temperature;BME280_humidity;BME280_pressure;Samples;Min_cycle;Max_cycle;Signal;HPM_P1;HPM_P2
2023/09/15 00:02:00;;;;;;;6.63;4.50;;;;;;;;;;4992864;28;20705;-79
2023/09/15 00:04:29;;;;;;;6.23;4.80;;;;;;;;;;4992859;28;20224;-79
2023/09/15 00:06:56;;;;;;;6.30;4.60;;;;;;;;;;4993085;28;20230;-79
2023/09/15 00:09:24;;;;;;;6.07;4.93;;;;;;;;;;4993107;28;20209;-79
2023/09/15 00:11:51;;;;;;;11.33;5.90;;;;;;;;;;4993026;28;20289;-79
2023/09/15 00:14:19;;;;;;;6.30;5.70;;;;;;;;;;4992897;28;20210;-79
2023/09/15 00:16:46;;;;;;;6.90;5.73;;;;;;;;;;4993036;28;20253;-79
2023/09/15 00:19:16;;;;;;;7.57;4.80;;;;;;;;;;4993100;28;20217;-79
2023/09/15 00:21:44;;;;;;;6.83;5.20;;;;;;;;;;4993143;28;20213;-79
2023/09/15 00:24:12;;;;;;;10.00;6.10;;;;;;;;;;4992516;28;20252;-79
2023/09/15 00:26:40;;;;;;;8.53;5.00;;;;;;;;;;4992794;28;20313;-80
2023/09/15 00:29:07;;;;;;;5.50;4.30;;;;;;;;;;4993007;28;20194;-79
2023/09/15 00:31:35;;;;;;;7.07;4.37;;;;;;;;;;4992704;28;20202;-79
2023/09/15 00:34:02;;;;;;;6.27;4.33;;;;;;;;;;4992476;28;20684;-80
2023/09/15 00:36:29;;;;;;;6.17;4.20;;;;;;;;;;4992788;28;20260;-79
2023/09/15 00:38:58;;;;;;;5.13;4.40;;;;;;;;;;4992647;28;20221;-80
2023/09/15 00:41:26;;;;;;;5.20;4.70;;;;;;;;;;4992559;28;20603;-80
2023/09/15 00:43:53;;;;;;;5.23;4.73;;;;;;;;;;4992968;28;20229;-81
2023/09/15 00:46:20;;;;;;;5.00;4.50;;;;;;;;;;4991794;28;20230;-79
2023/09/15 00:48:48;;;;;;;5.47;4.50;;;;;;;;;;4992180;28;20292;-80
2023/09/15 00:51:16;;;;;;;6.00;4.90;;;;;;;;;;4992410;28;20972;-79
2023/09/15 00:53:43;;;;;;;6.27;4.60;;;;;;;;;;4991906;28;20262;-79
2023/09/15 00:56:12;;;;;;;5.20;4.70;;;;;;;;;;4992162;28;20297;-80
2023/09/15 00:58:40;;;;;;;6.20;4.53;;;;;;;;;;4992368;28;20202;-78
2023/09/15 01:01:08;;;;;;;6.43;5.00;;;;;;;;;;4991822;28;20306;-78
2023/09/15 01:03:37;;;;;;;5.10;4.60;;;;;;;;;;4992391;28;20197;-78
2023/09/15 01:06:06;;;;;;;6.57;5.33;;;;;;;;;;4991794;28;20257;-79
2023/09/15 01:08:34;;;;;;;7.53;5.47;;;;;;;;;;4992082;28;20285;-79
2023/09/15 01:11:04;;;;;;;7.30;5.50;;;;;;;;;;4992017;28;20193;-79
2023/09/15 01:13:32;;;;;;;6.20;5.60;;;;;;;;;;4992225;28;20202;-79
2023/09/15 01:16:03;;;;;;;7.30;5.37;;;;;;;;;;4991747;28;20300;-80
2023/09/15 01:18:35;;;;;;;8.03;6.13;;;;;;;;;;4992103;28;20694;-79
2023/09/15 01:21:21;;;;;;;6.57;5.87;;;;;;;;;;4992087;28;20225;-79
2023/09/15 01:24:03;;;;;;;7.97;6.60;;;;;;;;;;4992133;28;20202;-79
2023/09/15 01:26:44;;;;;;;7.00;6.17;;;;;;;;;;4988720;28;20236;-79
2023/09/15 01:29:29;;;;;;;8.07;6.67;;;;;;;;;;4991825;28;20286;-79
2023/09/15 01:32:01;;;;;;;6.90;6.20;;;;;;;;;;4991629;28;20208;-80
2023/09/15 01:34:29;;;;;;;7.13;6.43;;;;;;;;;;4991889;28;20290;-79
2023/09/15 01:36:56;;;;;;;7.00;6.20;;;;;;;;;;4991887;28;20232;-79
2023/09/15 01:39:23;;;;;;;7.30;6.00;;;;;;;;;;4991662;28;20213;-79
2023/09/15 01:41:50;;;;;;;7.33;5.73;;;;;;;;;;4992306;28;20198;-78
2023/09/15 01:44:18;;;;;;;6.03;5.43;;;;;;;;;;4991383;28;20289;-79
2023/09/15 01:46:46;;;;;;;5.83;5.33;;;;;;;;;;4991246;28;20230;-79
2023/09/15 01:49:13;;;;;;;7.33;5.53;;;;;;;;;;4992396;28;20194;-80
2023/09/15 01:51:41;;;;;;;6.80;5.87;;;;;;;;;;4991232;28;20259;-78
2023/09/15 01:54:08;;;;;;;6.57;5.97;;;;;;;;;;4991465;28;20669;-79
2023/09/15 01:56:35;;;;;;;7.73;5.93;;;;;;;;;;4991486;28;20292;-79
2023/09/15 01:59:03;;;;;;;6.60;5.90;;;;;;;;;;4990512;28;20297;-79
2023/09/15 02:01:30;;;;;;;6.67;5.83;;;;;;;;;;4993207;28;20292;-78
2023/09/15 02:03:58;;;;;;;8.13;6.07;;;;;;;;;;4995667;28;20226;-80
2023/09/15 02:06:26;;;;;;;6.27;5.57;;;;;;;;;;4995302;28;20233;-78
2023/09/15 02:08:53;;;;;;;7.40;6.07;;;;;;;;;;4995091;28;20198;-79
2023/09/15 02:11:20;;;;;;;11.10;5.97;;;;;;;;;;4995624;28;20229;-79
2023/09/15 02:13:47;;;;;;;7.43;6.03;;;;;;;;;;4994998;28;20198;-79
2023/09/15 02:16:14;;;;;;;6.13;5.53;;;;;;;;;;4995348;28;20194;-79
2023/09/15 02:18:42;;;;;;;6.67;5.60;;;;;;;;;;4994847;28;20285;-80
2023/09/15 02:21:11;;;;;;;7.27;5.87;;;;;;;;;;4995458;28;20221;-77
2023/09/15 02:23:38;;;;;;;8.20;5.33;;;;;;;;;;4994792;28;20204;-81
2023/09/15 02:26:06;;;;;;;6.27;5.67;;;;;;;;;;4995056;28;20225;-80
2023/09/15 02:28:33;;;;;;;10.13;6.30;;;;;;;;;;4995035;28;20221;-79
2023/09/15 02:31:00;;;;;;;7.77;6.10;;;;;;;;;;4994940;28;20194;-80
2023/09/15 02:33:27;;;;;;;7.07;6.37;;;;;;;;;;4994989;28;20677;-77
2023/09/15 02:35:55;;;;;;;7.47;6.27;;;;;;;;;;4995005;28;20660;-79
2023/09/15 02:38:23;;;;;;;8.60;6.00;;;;;;;;;;4992511;28;20316;-78
2023/09/15 02:40:50;;;;;;;9.13;6.67;;;;;;;;;;4985735;28;20666;-79
2023/09/15 02:43:18;;;;;;;7.83;6.50;;;;;;;;;;4975208;28;20645;-79
2023/09/15 02:45:45;;;;;;;11.07;6.27;;;;;;;;;;4975028;28;20298;-79
2023/09/15 02:48:12;;;;;;;7.03;5.90;;;;;;;;;;4975659;28;20292;-78
2023/09/15 02:50:42;;;;;;;6.00;5.40;;;;;;;;;;4975205;28;20660;-79
2023/09/15 02:53:09;;;;;;;6.80;5.10;;;;;;;;;;4974772;28;20234;-80
2023/09/15 02:55:38;;;;;;;7.00;5.30;;;;;;;;;;4974932;28;20290;-80
2023/09/15 02:58:05;;;;;;;7.17;4.73;;;;;;;;;;4974856;28;20198;-79
2023/09/15 03:00:33;;;;;;;6.03;4.90;;;;;;;;;;4974864;28;20664;-80
2023/09/15 03:03:00;;;;;;;5.27;4.57;;;;;;;;;;4975245;28;20198;-79
2023/09/15 03:05:27;;;;;;;6.60;4.70;;;;;;;;;;4974828;28;20809;-79
2023/09/15 03:07:55;;;;;;;5.70;4.67;;;;;;;;;;4975019;28;20320;-79
2023/09/15 03:10:22;;;;;;;6.03;4.77;;;;;;;;;;4974736;28;20293;-79
2023/09/15 03:12:51;;;;;;;5.07;4.50;;;;;;;;;;4973483;28;20229;-79
2023/09/15 03:15:18;;;;;;;5.27;4.50;;;;;;;;;;4974823;28;20205;-79
2023/09/15 03:17:46;;;;;;;6.03;4.93;;;;;;;;;;4982054;28;20205;-79
2023/09/15 03:20:15;;;;;;;5.40;4.90;;;;;;;;;;4993818;28;20726;-79
2023/09/15 03:22:43;;;;;;;6.60;4.90;;;;;;;;;;4994604;28;20209;-79
2023/09/15 03:25:10;;;;;;;7.50;5.53;;;;;;;;;;4993973;28;20673;-79
2023/09/15 03:27:37;;;;;;;8.50;6.10;;;;;;;;;;4993644;28;20265;-79
2023/09/15 03:30:07;;;;;;;6.83;6.13;;;;;;;;;;4993909;28;20796;-78
2023/09/15 03:32:34;;;;;;;8.03;6.30;;;;;;;;;;4994282;28;20204;-79
2023/09/15 03:35:01;;;;;;;8.37;6.40;;;;;;;;;;4993855;28;20293;-79
2023/09/15 03:37:30;;;;;;;8.57;6.50;;;;;;;;;;4994052;28;20286;-79
2023/09/15 03:39:57;;;;;;;6.00;5.40;;;;;;;;;;4993939;28;20291;-79
2023/09/15 03:42:24;;;;;;;6.13;5.53;;;;;;;;;;4993774;28;20260;-79
2023/09/15 03:44:51;;;;;;;6.30;5.67;;;;;;;;;;4993673;28;20280;-79
2023/09/15 03:47:20;;;;;;;8.03;5.40;;;;;;;;;;4993186;28;20313;-78
2023/09/15 03:49:47;;;;;;;6.63;5.80;;;;;;;;;;4993529;28;20198;-79
2023/09/15 03:52:14;;;;;;;8.63;6.40;;;;;;;;;;4993796;28;20273;-79
2023/09/15 03:54:42;;;;;;;7.50;6.60;;;;;;;;;;4992501;28;20284;-78
2023/09/15 03:57:09;;;;;;;7.63;6.53;;;;;;;;;;4993408;28;20622;-79
2023/09/15 03:59:37;;;;;;;7.03;6.20;;;;;;;;;;4993465;28;20221;-79
2023/09/15 04:02:04;;;;;;;7.90;6.50;;;;;;;;;;4993563;28;20208;-79
2023/09/15 04:04:33;;;;;;;7.13;6.30;;;;;;;;;;4993483;28;20201;-78
2023/09/15 04:07:00;;;;;;;7.53;6.20;;;;;;;;;;4993253;28;20287;-79
2023/09/15 04:09:27;;;;;;;7.37;5.90;;;;;;;;;;4993031;28;20202;-80
2023/09/15 04:11:55;;;;;;;10.10;5.93;;;;;;;;;;4993217;28;20288;-78
2023/09/15 04:14:22;;;;;;;7.87;6.10;;;;;;;;;;4993182;28;20673;-79
2023/09/15 04:16:50;;;;;;;7.70;5.83;;;;;;;;;;4992982;28;20229;-79
2023/09/15 04:19:17;;;;;;;6.83;6.13;;;;;;;;;;4973805;28;20281;-79
2023/09/15 04:21:45;;;;;;;6.30;5.63;;;;;;;;;;4973802;28;20293;-79
2023/09/15 04:24:12;;;;;;;7.90;6.50;;;;;;;;;;4972611;28;20305;-80
2023/09/15 04:26:40;;;;;;;8.70;7.57;;;;;;;;;;4973661;28;20195;-77
2023/09/15 04:29:09;;;;;;;8.47;7.50;;;;;;;;;;4973287;28;20210;-78
2023/09/15 04:31:37;;;;;;;9.70;7.60;;;;;;;;;;4973588;28;20199;-80
2023/09/15 04:34:05;;;;;;;9.77;7.20;;;;;;;;;;4973224;28;20670;-80
2023/09/15 04:36:32;;;;;;;8.77;6.70;;;;;;;;;;4973182;28;20769;-79
2023/09/15 04:39:01;;;;;;;7.43;6.33;;;;;;;;;;4973036;28;20218;-79
2023/09/15 04:41:28;;;;;;;7.03;6.20;;;;;;;;;;4973336;28;20317;-79
2023/09/15 04:43:56;;;;;;;7.40;6.53;;;;;;;;;;4973434;28;20222;-79
2023/09/15 04:46:24;;;;;;;7.27;6.43;;;;;;;;;;4973300;28;20265;-79
2023/09/15 04:48:52;;;;;;;8.80;6.40;;;;;;;;;;4973106;28;20296;-80
2023/09/15 04:51:19;;;;;;;7.60;6.20;;;;;;;;;;4972886;28;20278;-79
2023/09/15 04:53:46;;;;;;;9.30;7.00;;;;;;;;;;4972836;28;20270;-80
2023/09/15 04:56:14;;;;;;;7.63;6.60;;;;;;;;;;4973037;28;20308;-79
2023/09/15 04:58:45;;;;;;;7.23;6.33;;;;;;;;;;4973141;28;20199;-79
2023/09/15 05:01:15;;;;;;;9.93;6.70;;;;;;;;;;4972705;28;20202;-79
2023/09/15 05:03:43;;;;;;;8.40;6.67;;;;;;;;;;4973274;28;20206;-80
2023/09/15 05:06:10;;;;;;;8.67;6.20;;;;;;;;;;4972764;28;20195;-79
2023/09/15 05:08:37;;;;;;;10.47;7.43;;;;;;;;;;4972204;28;20326;-79
2023/09/15 05:11:05;;;;;;;8.70;6.90;;;;;;;;;;4972612;28;20289;-78
2023/09/15 05:13:34;;;;;;;8.73;7.07;;;;;;;;;;4972678;28;20735;-79
2023/09/15 05:16:03;;;;;;;9.53;7.67;;;;;;;;;;4973163;28;20198;-80
2023/09/15 05:18:30;;;;;;;9.83;7.20;;;;;;;;;;4985859;28;20206;-79
2023/09/15 05:20:57;;;;;;;12.57;7.33;;;;;;;;;;4991511;28;20543;-79
2023/09/15 05:23:24;;;;;;;8.40;7.43;;;;;;;;;;4991666;28;20748;-80
2023/09/15 05:25:53;;;;;;;10.47;7.90;;;;;;;;;;4992148;28;20755;-79
2023/09/15 05:28:20;;;;;;;11.10;8.27;;;;;;;;;;4991595;28;20229;-80
2023/09/15 05:30:49;;;;;;;10.17;7.93;;;;;;;;;;4989762;28;20202;-78
2023/09/15 05:33:17;;;;;;;9.50;7.67;;;;;;;;;;4991089;28;20289;-80
2023/09/15 05:35:46;;;;;;;10.83;8.07;;;;;;;;;;4990051;28;20296;-79
2023/09/15 05:38:13;;;;;;;10.43;7.33;;;;;;;;;;4991628;28;20651;-82
2023/09/15 05:40:40;;;;;;;10.23;8.13;;;;;;;;;;4989873;28;20219;-81
2023/09/15 05:43:08;;;;;;;9.17;8.27;;;;;;;;;;4992109;28;20201;-81
2023/09/15 05:45:35;;;;;;;9.60;8.60;;;;;;;;;;4991004;28;20284;-80
2023/09/15 05:48:04;;;;;;;9.83;8.60;;;;;;;;;;4991375;28;20891;-80
2023/09/15 05:50:31;;;;;;;10.67;8.33;;;;;;;;;;4991959;28;20205;-80
2023/09/15 05:52:58;;;;;;;9.87;7.63;;;;;;;;;;4990745;28;20230;-80
2023/09/15 05:55:25;;;;;;;9.67;8.67;;;;;;;;;;4991072;28;20739;-80
2023/09/15 05:57:53;;;;;;;12.27;8.80;;;;;;;;;;4991741;28;20712;-80
2023/09/15 06:00:20;;;;;;;14.17;9.07;;;;;;;;;;4991104;28;20193;-80
2023/09/15 06:02:47;;;;;;;8.87;7.93;;;;;;;;;;4991711;28;20202;-79
2023/09/15 06:05:19;;;;;;;12.17;7.50;;;;;;;;;;4991009;28;20298;-80
2023/09/15 06:07:46;;;;;;;9.97;7.83;;;;;;;;;;4991578;28;20222;-79
2023/09/15 06:10:14;;;;;;;10.27;7.60;;;;;;;;;;4991778;28;20217;-80
2023/09/15 06:12:41;;;;;;;9.33;7.17;;;;;;;;;;4991680;28;20281;-80
2023/09/15 06:15:08;;;;;;;8.43;7.20;;;;;;;;;;4991573;28;20293;-80
2023/09/15 06:17:36;;;;;;;9.13;7.00;;;;;;;;;;4991906;28;20202;-80
2023/09/15 06:20:04;;;;;;;8.73;6.90;;;;;;;;;;4991010;28;20293;-80
2023/09/15 06:22:33;;;;;;;9.93;7.30;;;;;;;;;;4991336;28;20201;-79
2023/09/15 06:25:00;;;;;;;11.47;7.87;;;;;;;;;;4991647;28;20235;-79
2023/09/15 06:27:27;;;;;;;8.57;7.00;;;;;;;;;;4991241;28;20240;-80
2023/09/15 06:29:55;;;;;;;8.20;6.93;;;;;;;;;;4991432;28;20230;-80
2023/09/15 06:32:23;;;;;;;10.87;7.60;;;;;;;;;;4991747;28;20204;-80
2023/09/15 06:34:50;;;;;;;11.53;7.03;;;;;;;;;;4990723;28;20293;-80
2023/09/15 06:37:17;;;;;;;7.93;6.43;;;;;;;;;;4991313;28;20288;-80
2023/09/15 06:39:45;;;;;;;8.13;6.97;;;;;;;;;;4991355;28;20289;-80
2023/09/15 06:42:13;;;;;;;10.17;7.30;;;;;;;;;;4991391;28;20297;-80
2023/09/15 06:44:40;;;;;;;8.50;7.17;;;;;;;;;;4991478;28;20285;-80
2023/09/15 06:47:07;;;;;;;9.57;6.73;;;;;;;;;;4992302;28;20296;-81
2023/09/15 06:49:35;;;;;;;7.53;6.57;;;;;;;;;;4994328;28;20233;-80
2023/09/15 06:52:02;;;;;;;8.13;6.70;;;;;;;;;;4994867;28;20238;-80
2023/09/15 06:54:29;;;;;;;7.53;5.93;;;;;;;;;;4994635;28;20198;-80
2023/09/15 06:56:57;;;;;;;8.87;6.10;;;;;;;;;;4994879;28;20676;-80
2023/09/15 06:59:25;;;;;;;7.35;5.75;;;;;;;;;;4994727;28;20225;-81
2023/09/15 07:01:52;;;;;;;6.82;5.55;;;;;;;;;;4994579;28;20225;-80
2023/09/15 07:04:19;;;;;;;6.95;5.55;;;;;;;;;;4994064;28;20202;-81
2023/09/15 07:06:46;;;;;;;7.07;5.25;;;;;;;;;;4994765;28;20233;-80
2023/09/15 07:09:13;;;;;;;7.30;5.10;;;;;;;;;;4994485;28;20268;-81
2023/09/15 07:11:40;;;;;;;6.50;5.22;;;;;;;;;;4994411;28;20669;-81
2023/09/15 07:14:09;;;;;;;8.18;5.00;;;;;;;;;;4994255;28;20276;-81
2023/09/15 07:16:36;;;;;;;8.00;5.25;;;;;;;;;;4994250;28;20229;-81
2023/09/15 07:19:03;;;;;;;8.50;4.93;;;;;;;;;;4993603;28;20209;-82
2023/09/15 07:21:31;;;;;;;5.40;4.53;;;;;;;;;;4994039;28;20229;-82
2023/09/15 07:23:59;;;;;;;7.28;4.75;;;;;;;;;;4994181;28;20736;-81
2023/09/15 07:26:26;;;;;;;7.80;4.50;;;;;;;;;;4994260;28;20293;-82
2023/09/15 07:28:53;;;;;;;5.00;4.28;;;;;;;;;;4993861;28;20701;-81
2023/09/15 07:31:22;;;;;;;5.57;4.38;;;;;;;;;;4993873;28;20240;-82
2023/09/15 07:33:49;;;;;;;6.85;4.72;;;;;;;;;;4993990;28;20747;-81
2023/09/15 07:36:16;;;;;;;6.60;4.47;;;;;;;;;;4994077;28;20209;-82
2023/09/15 07:38:44;;;;;;;7.32;4.18;;;;;;;;;;4993921;28;20224;-82
2023/09/15 07:41:11;;;;;;;6.32;4.72;;;;;;;;;;4993758;28;20245;-82
2023/09/15 07:43:38;;;;;;;8.50;4.95;;;;;;;;;;4994367;28;20293;-82
2023/09/15 07:46:05;;;;;;;6.47;4.70;;;;;;;;;;4993926;28;20241;-83
2023/09/15 07:48:34;;;;;;;7.05;4.55;;;;;;;;;;4993097;28;20720;-82
2023/09/15 07:51:01;;;;;;;6.45;4.45;;;;;;;;;;4993745;28;20236;-82
2023/09/15 07:53:28;;;;;;;6.40;4.28;;;;;;;;;;4992909;28;20324;-81
2023/09/15 07:55:56;;;;;;;5.80;4.03;;;;;;;;;;4993916;28;20261;-82
2023/09/15 07:58:23;;;;;;;7.28;4.82;;;;;;;;;;4992674;28;20684;-82
2023/09/15 08:00:50;;;;;;;8.27;4.22;;;;;;;;;;4993735;28;20202;-81
2023/09/15 08:03:18;;;;;;;5.15;3.90;;;;;;;;;;4992657;28;20244;-83
2023/09/15 08:05:47;;;;;;;8.43;4.68;;;;;;;;;;4993212;28;20202;-81
2023/09/15 08:08:14;;;;;;;6.70;4.35;;;;;;;;;;4992856;28;20316;-79
2023/09/15 08:10:41;;;;;;;6.32;4.20;;;;;;;;;;4993366;28;20244;-80
2023/09/15 08:13:08;;;;;;;5.47;4.22;;;;;;;;;;4992802;28;20225;-82
2023/09/15 08:15:36;;;;;;;9.13;3.97;;;;;;;;;;4991379;28;20281;-79
2023/09/15 08:18:03;;;;;;;7.40;4.13;;;;;;;;;;4992479;28;20628;-83
2023/09/15 08:20:30;;;;;;;7.97;3.90;;;;;;;;;;4990612;28;20225;-81
2023/09/15 08:22:59;;;;;;;5.05;3.80;;;;;;;;;;4992389;28;20284;-82
2023/09/15 08:25:26;;;;;;;9.10;3.90;;;;;;;;;;4992623;28;20285;-81
2023/09/15 08:27:54;;;;;;;5.45;3.55;;;;;;;;;;4992895;28;20276;-82
2023/09/15 08:30:22;;;;;;;8.63;3.55;;;;;;;;;;4991776;28;20265;-82
2023/09/15 08:32:49;;;;;;;5.57;3.50;;;;;;;;;;4992386;28;20197;-82
2023/09/15 08:35:17;;;;;;;6.63;3.50;;;;;;;;;;4992534;28;20278;-82
2023/09/15 08:37:44;;;;;;;5.32;3.70;;;;;;;;;;4992501;28;20230;-81
2023/09/15 08:40:14;;;;;;;5.25;3.13;;;;;;;;;;4992218;28;20759;-81
2023/09/15 08:42:41;;;;;;;6.80;2.95;;;;;;;;;;4992583;28;20217;-82
2023/09/15 08:45:10;;;;;;;5.65;3.20;;;;;;;;;;4991905;28;20225;-82
2023/09/15 08:47:39;;;;;;;5.40;3.05;;;;;;;;;;4992175;28;20281;-82
2023/09/15 08:50:09;;;;;;;5.85;2.97;;;;;;;;;;4992112;28;20221;-82
2023/09/15 08:52:37;;;;;;;3.65;2.88;;;;;;;;;;4992043;28;20225;-82
2023/09/15 08:55:05;;;;;;;4.75;2.60;;;;;;;;;;4991820;28;20280;-81
2023/09/15 08:57:34;;;;;;;8.30;3.33;;;;;;;;;;4989835;28;20569;-82
2023/09/15 09:00:01;;;;;;;4.20;2.50;;;;;;;;;;4992604;28;20229;-82
2023/09/15 09:02:28;;;;;;;5.63;2.95;;;;;;;;;;4992443;28;20207;-81
2023/09/15 09:04:56;;;;;;;6.88;3.03;;;;;;;;;;4992498;28;20197;-82
2023/09/15 09:07:24;;;;;;;5.97;2.83;;;;;;;;;;4993266;28;20646;-82
2023/09/15 09:09:51;;;;;;;4.30;2.65;;;;;;;;;;4992328;28;20229;-82
2023/09/15 09:12:19;;;;;;;3.42;2.10;;;;;;;;;;4992044;28;21059;-82
2023/09/15 09:14:53;;;;;;;8.13;2.83;;;;;;;;;;4992439;28;20201;-81
2023/09/15 09:17:21;;;;;;;3.13;2.25;;;;;;;;;;4992312;28;20198;-82
2023/09/15 09:19:49;;;;;;;6.15;2.20;;;;;;;;;;4992421;28;20302;-82
2023/09/15 09:22:17;;;;;;;6.68;2.65;;;;;;;;;;4992462;28;20739;-82
2023/09/15 09:24:45;;;;;;;6.03;2.45;;;;;;;;;;4974804;28;20209;-82
2023/09/15 09:27:13;;;;;;;3.70;2.35;;;;;;;;;;4990429;28;20547;-82
2023/09/15 09:29:41;;;;;;;5.90;2.60;;;;;;;;;;4973459;28;20704;-82
2023/09/15 09:32:14;;;;;;;2.35;2.15;;;;;;;;;;4991752;28;20217;-81
2023/09/15 09:34:41;;;;;;;3.75;2.13;;;;;;;;;;4992744;28;20201;-82
2023/09/15 09:37:07;;;;;;;2.92;2.03;;;;;;;;;;4997707;28;20193;-82
2023/09/15 09:39:36;;;;;;;7.32;2.20;;;;;;;;;;5001426;28;20672;-82
2023/09/15 09:42:03;;;;;;;3.97;2.40;;;;;;;;;;5004512;28;20280;-83
2023/09/15 09:44:32;;;;;;;3.20;2.20;;;;;;;;;;5001818;28;20743;-83
2023/09/15 09:46:59;;;;;;;4.35;2.00;;;;;;;;;;5000337;28;20208;-84
2023/09/15 09:49:28;;;;;;;3.42;2.33;;;;;;;;;;5000723;28;20315;-82
2023/09/15 09:51:56;;;;;;;3.80;2.35;;;;;;;;;;4992066;28;20297;-80
2023/09/15 09:54:26;;;;;;;4.15;2.30;;;;;;;;;;4997707;28;20189;-81
2023/09/15 09:56:55;;;;;;;6.03;2.25;;;;;;;;;;5000528;28;20280;-81
2023/09/15 09:59:22;;;;;;;4.57;2.75;;;;;;;;;;5005362;28;20233;-82
2023/09/15 10:01:50;;;;;;;3.20;2.20;;;;;;;;;;4994742;28;20212;-82
2023/09/15 10:04:17;;;;;;;4.72;2.28;;;;;;;;;;5005815;28;20281;-81
2023/09/15 10:06:46;;;;;;;3.47;2.33;;;;;;;;;;5000938;28;20719;-82
2023/09/15 10:09:15;;;;;;;2.97;2.08;;;;;;;;;;4998295;28;20273;-82
2023/09/15 10:11:43;;;;;;;3.67;2.30;;;;;;;;;;5007303;28;20292;-81
2023/09/15 10:14:11;;;;;;;5.18;2.10;;;;;;;;;;4995815;28;20277;-81
2023/09/15 10:16:38;;;;;;;4.13;2.28;;;;;;;;;;5002780;28;20281;-82
2023/09/15 10:19:06;;;;;;;3.28;2.20;;;;;;;;;;5000137;28;20216;-81
2023/09/15 10:21:36;;;;;;;2.67;2.10;;;;;;;;;;4990458;28;20293;-81
2023/09/15 10:24:07;;;;;;;3.47;2.55;;;;;;;;;;4995058;28;20228;-81
2023/09/15 10:26:35;;;;;;;3.22;2.35;;;;;;;;;;4993348;28;20201;-82
2023/09/15 10:29:02;;;;;;;3.22;2.25;;;;;;;;;;4995823;28;20217;-83
2023/09/15 10:31:32;;;;;;;5.32;2.28;;;;;;;;;;4994368;28;20422;-82
2023/09/15 10:34:04;;;;;;;2.90;2.50;;;;;;;;;;4994690;28;20676;-81
2023/09/15 10:36:31;;;;;;;4.70;2.40;;;;;;;;;;4995858;28;20256;-81
2023/09/15 10:38:58;;;;;;;3.35;2.22;;;;;;;;;;4995074;28;20324;-82
2023/09/15 10:41:31;;;;;;;3.28;2.35;;;;;;;;;;4994760;28;20208;-82
2023/09/15 10:43:58;;;;;;;5.95;2.25;;;;;;;;;;4995691;28;20225;-82
2023/09/15 10:46:35;;;;;;;3.78;2.47;;;;;;;;;;4994834;28;20276;-81
2023/09/15 10:49:13;;;;;;;2.42;2.13;;;;;;;;;;4994512;28;20231;-81
2023/09/15 10:51:51;;;;;;;2.95;2.20;;;;;;;;;;4993130;28;20215;-82
2023/09/15 10:54:19;;;;;;;3.58;2.20;;;;;;;;;;4992278;28;20308;-81
2023/09/15 10:56:47;;;;;;;2.95;2.30;;;;;;;;;;4995240;28;20646;-82
2023/09/15 10:59:16;;;;;;;3.10;2.35;;;;;;;;;;4994929;28;20764;-82
2023/09/15 11:01:44;;;;;;;2.50;2.30;;;;;;;;;;4994807;28;20285;-81
2023/09/15 11:04:12;;;;;;;5.68;2.28;;;;;;;;;;4991751;28;20194;-82
2023/09/15 11:06:40;;;;;;;2.20;2.00;;;;;;;;;;4995272;28;20190;-82
2023/09/15 11:09:08;;;;;;;3.97;2.30;;;;;;;;;;4994263;28;20647;-82
2023/09/15 11:11:35;;;;;;;3.15;2.20;;;;;;;;;;4993629;28;20194;-82
2023/09/15 11:14:05;;;;;;;2.35;2.10;;;;;;;;;;4995093;28;20197;-82
2023/09/15 11:16:33;;;;;;;3.90;2.28;;;;;;;;;;4995161;28;20591;-82
2023/09/15 11:19:02;;;;;;;6.20;2.60;;;;;;;;;;4976939;28;20204;-82
2023/09/15 11:21:30;;;;;;;3.42;2.05;;;;;;;;;;4992601;28;20229;-83
2023/09/15 11:23:57;;;;;;;3.42;2.35;;;;;;;;;;4993723;28;20310;-82
2023/09/15 11:26:25;;;;;;;3.22;2.17;;;;;;;;;;4993100;28;20296;-82
2023/09/15 11:28:53;;;;;;;4.05;2.20;;;;;;;;;;4994065;28;20264;-81
2023/09/15 11:31:23;;;;;;;2.65;2.20;;;;;;;;;;4994818;28;20364;-82
2023/09/15 11:33:51;;;;;;;3.10;2.47;;;;;;;;;;4993652;28;20285;-82
2023/09/15 11:36:19;;;;;;;4.25;2.53;;;;;;;;;;4993928;28;20209;-82
2023/09/15 11:38:46;;;;;;;2.47;2.28;;;;;;;;;;4994097;28;20349;-82
2023/09/15 11:41:15;;;;;;;2.70;2.45;;;;;;;;;;4994196;28;20244;-81
2023/09/15 11:43:44;;;;;;;2.40;2.20;;;;;;;;;;4993798;28;20206;-82
2023/09/15 11:46:13;;;;;;;2.40;2.20;;;;;;;;;;4993828;28;20233;-80
2023/09/15 11:48:47;;;;;;;2.92;2.10;;;;;;;;;;4993745;28;20209;-81
2023/09/15 11:51:15;;;;;;;2.60;2.20;;;;;;;;;;4993495;28;20308;-82
2023/09/15 11:53:43;;;;;;;3.35;2.53;;;;;;;;;;4993301;28;20232;-82
2023/09/15 11:56:14;;;;;;;3.53;2.40;;;;;;;;;;4995059;28;20677;-81
2023/09/15 11:58:42;;;;;;;4.85;2.58;;;;;;;;;;4994797;28;20677;-81
2023/09/15 12:01:10;;;;;;;3.03;2.35;;;;;;;;;;4993912;28;20198;-81
2023/09/15 12:03:37;;;;;;;2.58;2.22;;;;;;;;;;4992890;28;20696;-81
2023/09/15 12:06:06;;;;;;;3.20;2.20;;;;;;;;;;4992575;28;20233;-81
2023/09/15 12:08:34;;;;;;;3.30;2.22;;;;;;;;;;4992671;28;20674;-82
2023/09/15 12:11:01;;;;;;;4.60;2.42;;;;;;;;;;4992966;28;20251;-82
2023/09/15 12:13:36;;;;;;;2.92;2.30;;;;;;;;;;4994170;28;20633;-81
2023/09/15 12:16:04;;;;;;;2.92;2.30;;;;;;;;;;4993264;28;20742;-81
2023/09/15 12:18:36;;;;;;;3.72;2.17;;;;;;;;;;4992748;28;20208;-82
2023/09/15 12:21:04;;;;;;;2.92;1.92;;;;;;;;;;4992914;28;20194;-82
2023/09/15 12:23:33;;;;;;;2.28;1.80;;;;;;;;;;4992761;28;20205;-82
2023/09/15 12:26:02;;;;;;;2.50;2.30;;;;;;;;;;4999123;28;20236;-81
2023/09/15 12:28:31;;;;;;;3.13;2.47;;;;;;;;;;4993382;28;20198;-81
2023/09/15 12:31:01;;;;;;;2.60;2.40;;;;;;;;;;4992626;28;20356;-81
2023/09/15 12:33:30;;;;;;;2.60;2.40;;;;;;;;;;4993972;28;20699;-82
2023/09/15 12:35:57;;;;;;;2.88;2.28;;;;;;;;;;4992624;28;20205;-81
2023/09/15 12:38:24;;;;;;;2.67;2.15;;;;;;;;;;4993159;28;20205;-82
2023/09/15 12:40:53;;;;;;;3.88;2.38;;;;;;;;;;4993073;28;20292;-81
2023/09/15 12:43:20;;;;;;;3.10;2.22;;;;;;;;;;4992352;28;20244;-80
2023/09/15 12:45:47;;;;;;;2.45;2.25;;;;;;;;;;4991813;28;20914;-82
2023/09/15 12:48:14;;;;;;;5.53;2.30;;;;;;;;;;4992083;28;20221;-81
2023/09/15 12:50:41;;;;;;;2.50;2.30;;;;;;;;;;4991906;28;20234;-80
2023/09/15 12:53:09;;;;;;;2.50;2.00;;;;;;;;;;4991823;28;20292;-81
2023/09/15 12:55:36;;;;;;;2.92;2.30;;;;;;;;;;4991791;28;20222;-81
2023/09/15 12:58:06;;;;;;;3.38;2.30;;;;;;;;;;4989523;28;20233;-81
2023/09/15 13:00:36;;;;;;;2.28;1.95;;;;;;;;;;4991800;28;20661;-82
2023/09/15 13:03:03;;;;;;;2.20;2.00;;;;;;;;;;4992013;28;20256;-80
2023/09/15 13:05:30;;;;;;;3.33;2.28;;;;;;;;;;4991532;28;20202;-81
2023/09/15 13:07:58;;;;;;;2.90;2.10;;;;;;;;;;4991256;28;20234;-82
2023/09/15 13:10:25;;;;;;;2.65;2.10;;;;;;;;;;4994198;28;20641;-82
2023/09/15 13:12:52;;;;;;;2.65;2.25;;;;;;;;;;4991748;28;20280;-82
2023/09/15 13:15:23;;;;;;;3.10;1.95;;;;;;;;;;4991949;28;20224;-81
2023/09/15 13:17:52;;;;;;;2.35;1.92;;;;;;;;;;4989412;28;20851;-81
2023/09/15 13:20:19;;;;;;;2.90;1.90;;;;;;;;;;4991184;28;20194;-82
2023/09/15 13:22:46;;;;;;;2.30;2.10;;;;;;;;;;4991506;28;20225;-82
2023/09/15 13:25:13;;;;;;;3.28;2.25;;;;;;;;;;4991854;28;20293;-82
2023/09/15 13:27:42;;;;;;;4.25;2.20;;;;;;;;;;4991284;28;20198;-82
2023/09/15 13:30:10;;;;;;;3.00;2.00;;;;;;;;;;4982641;28;20678;-81
2023/09/15 13:32:39;;;;;;;2.70;2.20;;;;;;;;;;4991794;28;20288;-82
2023/09/15 13:35:06;;;;;;;3.90;2.15;;;;;;;;;;4991157;28;20695;-82
2023/09/15 13:37:34;;;;;;;2.50;2.30;;;;;;;;;;4993639;28;20205;-82
2023/09/15 13:40:01;;;;;;;3.53;2.30;;;;;;;;;;5000268;28;20233;-82
2023/09/15 13:42:32;;;;;;;3.45;2.33;;;;;;;;;;5012763;28;20283;-81
2023/09/15 13:45:03;;;;;;;3.80;2.20;;;;;;;;;;4992751;28;20830;-82
2023/09/15 13:47:32;;;;;;;3.22;2.05;;;;;;;;;;4990871;28;20221;-82
2023/09/15 13:50:01;;;;;;;2.78;1.88;;;;;;;;;;4993176;28;20705;-81
2023/09/15 13:52:36;;;;;;;2.22;2.00;;;;;;;;;;4992015;28;20324;-82
2023/09/15 13:55:07;;;;;;;3.38;2.28;;;;;;;;;;4995249;28;20204;-82
2023/09/15 13:57:39;;;;;;;2.45;1.83;;;;;;;;;;5001197;28;20642;-82
2023/09/15 14:00:09;;;;;;;2.20;2.00;;;;;;;;;;4996780;28;20597;-81
2023/09/15 14:02:38;;;;;;;2.40;2.00;;;;;;;;;;4995820;28;20201;-81
2023/09/15 14:05:07;;;;;;;3.55;1.90;;;;;;;;;;4995442;28;20198;-81
2023/09/15 14:07:35;;;;;;;2.53;2.00;;;;;;;;;;4993006;28;20289;-81
2023/09/15 14:10:02;;;;;;;3.22;2.20;;;;;;;;;;4996916;28;20582;-81
2023/09/15 14:12:29;;;;;;;2.78;1.77;;;;;;;;;;4998791;28;20189;-81
2023/09/15 14:14:56;;;;;;;2.78;1.88;;;;;;;;;;4995012;28;20198;-82
2023/09/15 14:17:25;;;;;;;2.83;1.90;;;;;;;;;;4994795;28;20216;-81
2023/09/15 14:19:53;;;;;;;2.20;2.00;;;;;;;;;;4994586;28;20272;-81
2023/09/15 14:22:22;;;;;;;3.17;2.10;;;;;;;;;;4997392;28;20256;-81
2023/09/15 14:24:50;;;;;;;2.20;2.00;;;;;;;;;;4994874;28;20208;-81
2023/09/15 14:27:17;;;;;;;2.15;1.98;;;;;;;;;;4996203;28;20205;-81
2023/09/15 14:29:44;;;;;;;2.60;2.10;;;;;;;;;;4995825;28;20209;-81
2023/09/15 14:32:11;;;;;;;2.00;1.83;;;;;;;;;;4995909;28;20233;-81
2023/09/15 14:34:41;;;;;;;3.15;2.10;;;;;;;;;;4995924;28;20236;-81
2023/09/15 14:37:11;;;;;;;2.15;1.80;;;;;;;;;;4995057;28;20198;-82
2023/09/15 14:39:44;;;;;;;3.88;1.88;;;;;;;;;;4994565;28;20197;-81
2023/09/15 14:42:11;;;;;;;4.30;2.00;;;;;;;;;;4995036;28;20229;-81
2023/09/15 14:44:38;;;;;;;2.10;1.90;;;;;;;;;;4995016;28;20201;-81
2023/09/15 14:47:06;;;;;;;2.58;1.80;;;;;;;;;;4998386;28;20205;-81
2023/09/15 14:49:34;;;;;;;2.97;1.92;;;;;;;;;;4996290;28;20901;-81